Time;durP1;ratioP1;P1;durP2;ratioP2;P2;SDS_P1;SDS_P2;PMS_P1;PMS_P2;Temp;Humidity;BMP_temperature;BMP_pressure;BME280_temperature;BME280_humidity;BME280_pressure;Samples;Min_cycle;Max_cycle;Signal;HPM_P1;HPM_P2
2021/04/30 00:02:19;;;;;;;19.98;14.95;;;7.50;99.90;;;;;;5029043;28;20033;-48
2021/04/30 00:04:45;;;;;;;18.20;15.52;;;7.40;99.90;;;;;;5030627;28;20441;-47
2021/04/30 00:07:10;;;;;;;20.80;15.38;;;7.40;99.90;;;;;;5030632;28;20478;-48
2021/04/30 00:09:36;;;;;;;22.73;16.42;;;7.40;99.90;;;;;;5029947;28;20029;-48
2021/04/30 00:12:03;;;;;;;26.42;16.25;;;7.40;99.90;;;;;;5029427;28;20100;-50
2021/04/30 00:14:28;;;;;;;20.60;14.38;;;7.40;99.90;;;;;;5029967;28;20036;-50
2021/04/30 00:16:54;;;;;;;22.25;15.82;;;7.40;99.90;;;;;;5030526;28;20025;-49
2021/04/30 00:19:19;;;;;;;20.48;14.48;;;7.50;99.90;;;;;;5029928;28;20105;-49
2021/04/30 00:21:45;;;;;;;23.90;15.35;;;7.50;99.90;;;;;;5030593;28;20057;-49
2021/04/30 00:24:12;;;;;;;20.75;15.02;;;7.50;99.90;;;;;;5030342;28;20036;-48
2021/04/30 00:26:38;;;;;;;20.02;15.07;;;7.40;99.90;;;;;;5029077;28;20467;-47
2021/04/30 00:29:03;;;;;;;21.90;15.30;;;7.50;99.90;;;;;;5016015;28;20034;-49
2021/04/30 00:31:29;;;;;;;20.77;15.63;;;7.50;99.90;;;;;;5010081;28;20034;-46
2021/04/30 00:33:56;;;;;;;19.15;14.77;;;7.50;99.90;;;;;;5012573;28;20026;-46
2021/04/30 00:36:22;;;;;;;25.52;14.25;;;7.50;99.90;;;;;;5030183;28;20056;-47
2021/04/30 00:38:47;;;;;;;19.83;16.02;;;7.50;99.90;;;;;;5028449;28;20053;-48
2021/04/30 00:41:13;;;;;;;21.23;14.77;;;7.50;99.90;;;;;;5030071;28;20025;-47
2021/04/30 00:43:38;;;;;;;18.63;15.07;;;7.60;99.90;;;;;;5030121;28;20056;-48
2021/04/30 00:46:04;;;;;;;20.63;15.07;;;7.50;99.90;;;;;;5029853;28;20038;-47
2021/04/30 00:48:29;;;;;;;21.63;16.52;;;7.40;99.90;;;;;;5029581;28;20049;-50
2021/04/30 00:50:55;;;;;;;22.90;17.08;;;7.40;99.90;;;;;;5030120;28;20037;-48
2021/04/30 00:53:21;;;;;;;26.98;17.73;;;7.40;99.90;;;;;;5030249;28;20053;-48
2021/04/30 00:55:46;;;;;;;22.05;17.00;;;7.40;99.90;;;;;;5028636;28;20056;-48
2021/04/30 00:58:12;;;;;;;24.05;17.05;;;7.40;99.90;;;;;;5028166;28;20030;-49
2021/04/30 01:00:37;;;;;;;25.40;17.27;;;7.30;99.90;;;;;;5029834;28;20380;-47
2021/04/30 01:03:09;;;;;;;23.60;17.48;;;7.40;99.90;;;;;;5030238;28;20107;-46
2021/04/30 01:05:35;;;;;;;22.52;18.13;;;7.50;99.90;;;;;;5029822;28;20033;-46
2021/04/30 01:08:02;;;;;;;21.73;16.88;;;7.50;99.90;;;;;;5029424;28;20045;-47
2021/04/30 01:10:28;;;;;;;22.58;17.38;;;7.40;99.90;;;;;;5029913;28;20112;-47
2021/04/30 01:12:53;;;;;;;25.83;19.02;;;7.40;99.90;;;;;;5029664;28;20109;-46
2021/04/30 01:15:19;;;;;;;24.35;17.95;;;7.40;99.90;;;;;;5031112;28;20038;-48
2021/04/30 01:17:45;;;;;;;22.88;17.50;;;7.50;99.90;;;;;;5033051;28;20028;-48
2021/04/30 01:20:12;;;;;;;24.83;17.73;;;7.40;99.90;;;;;;5032335;28;20061;-47
2021/04/30 01:22:42;;;;;;;24.75;18.42;;;7.40;99.90;;;;;;5033737;28;20549;-47
2021/04/30 01:25:12;;;;;;;25.63;19.13;;;7.40;99.90;;;;;;5033765;28;20533;-48
2021/04/30 01:27:39;;;;;;;24.08;18.38;;;7.40;99.90;;;;;;5032813;28;20072;-47
2021/04/30 01:30:09;;;;;;;23.20;18.20;;;7.40;99.90;;;;;;5033160;28;20092;-47
2021/04/30 01:32:34;;;;;;;24.55;19.17;;;7.40;99.90;;;;;;5028455;28;20038;-46
2021/04/30 01:35:00;;;;;;;25.52;19.13;;;7.40;99.90;;;;;;5013922;28;20030;-46
2021/04/30 01:37:26;;;;;;;25.02;18.00;;;7.40;99.90;;;;;;5013130;28;20490;-46
2021/04/30 01:39:52;;;;;;;24.15;18.92;;;7.40;99.90;;;;;;5013455;28;20033;-46
2021/04/30 01:42:18;;;;;;;22.48;18.10;;;7.40;99.90;;;;;;5012765;28;20026;-45
2021/04/30 01:44:43;;;;;;;25.92;18.60;;;7.40;99.90;;;;;;5032852;28;20025;-47
2021/04/30 01:47:09;;;;;;;29.02;20.15;;;7.40;99.90;;;;;;5033314;28;20028;-47
2021/04/30 01:49:34;;;;;;;25.27;20.00;;;7.40;99.90;;;;;;5032549;28;20402;-46
2021/04/30 01:52:00;;;;;;;30.10;21.90;;;7.30;99.90;;;;;;5033151;28;20065;-49
2021/04/30 01:54:25;;;;;;;31.67;22.80;;;7.30;99.90;;;;;;5032732;28;20041;-48
2021/04/30 01:56:51;;;;;;;32.03;21.38;;;7.30;99.90;;;;;;5033090;28;20028;-46
2021/04/30 01:59:17;;;;;;;38.00;23.10;;;7.30;99.90;;;;;;5032381;28;20099;-46
2021/04/30 02:01:43;;;;;;;30.58;23.08;;;7.20;99.90;;;;;;5032613;28;20483;-47
2021/04/30 02:04:11;;;;;;;29.70;23.20;;;7.20;99.90;;;;;;5032536;28;20095;-46
2021/04/30 02:06:38;;;;;;;33.15;23.92;;;7.10;99.90;;;;;;5032425;28;20022;-46
2021/04/30 02:09:04;;;;;;;36.38;25.48;;;7.20;99.90;;;;;;5032144;28;20444;-45
2021/04/30 02:11:30;;;;;;;36.45;25.92;;;7.20;99.90;;;;;;5032662;28;20025;-48
2021/04/30 02:13:55;;;;;;;39.70;26.75;;;7.20;99.90;;;;;;5031344;28;20364;-48
2021/04/30 02:16:21;;;;;;;39.40;26.67;;;7.20;99.90;;;;;;5031302;28;20026;-46
2021/04/30 02:18:46;;;;;;;38.58;26.55;;;7.20;99.90;;;;;;5032256;28;20056;-48
2021/04/30 02:21:12;;;;;;;38.58;26.58;;;7.20;99.90;;;;;;5032812;28;20384;-47
2021/04/30 02:23:37;;;;;;;39.13;27.27;;;7.10;99.90;;;;;;5032366;28;20041;-46
2021/04/30 02:26:03;;;;;;;38.67;26.60;;;7.20;99.90;;;;;;5032405;28;20391;-47
2021/04/30 02:28:28;;;;;;;38.58;26.15;;;7.10;99.90;;;;;;5031976;28;20037;-46
2021/04/30 02:30:54;;;;;;;37.42;26.65;;;7.20;99.90;;;;;;5030651;28;20025;-46
2021/04/30 02:33:19;;;;;;;38.58;27.63;;;7.20;99.90;;;;;;5032350;28;20148;-49
2021/04/30 02:35:47;;;;;;;37.03;27.45;;;7.20;99.90;;;;;;5032062;28;20030;-47
2021/04/30 02:38:14;;;;;;;38.85;27.10;;;7.20;99.90;;;;;;5031657;28;20104;-47
2021/04/30 02:40:42;;;;;;;41.13;27.98;;;7.20;99.90;;;;;;5032209;28;20064;-46
2021/04/30 02:43:10;;;;;;;40.92;28.02;;;7.10;99.90;;;;;;5030848;28;20034;-46
2021/04/30 02:45:37;;;;;;;42.20;29.60;;;7.20;99.90;;;;;;5031525;28;20468;-46
2021/04/30 02:48:12;;;;;;;42.97;29.15;;;7.20;99.90;;;;;;5031475;28;20033;-47
2021/04/30 02:50:40;;;;;;;43.95;28.15;;;7.20;99.90;;;;;;5030500;28;20124;-47
2021/04/30 02:53:05;;;;;;;43.60;30.02;;;7.20;99.90;;;;;;5031928;28;20022;-49
2021/04/30 02:55:31;;;;;;;42.38;29.50;;;7.20;99.90;;;;;;5031605;28;20506;-47
2021/04/30 02:57:58;;;;;;;45.05;30.92;;;7.20;99.90;;;;;;5026773;28;20030;-47
2021/04/30 03:00:25;;;;;;;44.20;29.52;;;7.20;99.90;;;;;;5011881;28;20495;-46
2021/04/30 03:02:51;;;;;;;50.13;31.17;;;7.20;99.90;;;;;;5011984;28;20041;-46
2021/04/30 03:05:18;;;;;;;46.78;31.33;;;7.20;99.90;;;;;;5014793;28;20033;-48
2021/04/30 03:07:44;;;;;;;46.33;32.35;;;7.20;99.90;;;;;;5030854;28;20063;-46
2021/04/30 03:10:10;;;;;;;47.58;32.67;;;7.20;99.90;;;;;;5031669;28;20088;-46
2021/04/30 03:12:36;;;;;;;46.05;32.33;;;7.30;99.90;;;;;;5031709;28;20045;-46
2021/04/30 03:15:03;;;;;;;46.22;32.38;;;7.30;99.90;;;;;;5031402;28;20364;-47
2021/04/30 03:17:29;;;;;;;48.63;32.50;;;7.30;99.90;;;;;;5030721;28;20026;-47
2021/04/30 03:19:55;;;;;;;44.65;30.85;;;7.30;99.90;;;;;;5031403;28;20063;-46
2021/04/30 03:22:21;;;;;;;43.22;30.05;;;7.30;99.90;;;;;;5031421;28;20021;-46
2021/04/30 03:24:46;;;;;;;46.85;30.42;;;7.30;99.90;;;;;;5031251;28;20029;-46
2021/04/30 03:27:12;;;;;;;44.47;30.65;;;7.30;99.90;;;;;;5030308;28;20044;-47
2021/04/30 03:29:38;;;;;;;48.75;33.22;;;7.30;99.90;;;;;;5029071;28;20025;-47
2021/04/30 03:32:04;;;;;;;46.00;31.67;;;7.30;99.90;;;;;;5030430;28;20057;-47
2021/04/30 03:34:29;;;;;;;45.45;32.10;;;7.30;99.90;;;;;;5030709;28;20092;-46
2021/04/30 03:36:55;;;;;;;50.97;34.67;;;7.40;99.90;;;;;;5030022;28;20117;-46
2021/04/30 03:39:20;;;;;;;47.97;33.15;;;7.40;99.90;;;;;;5026132;28;20076;-47
2021/04/30 03:41:46;;;;;;;54.28;34.42;;;7.40;99.90;;;;;;5030826;28;20021;-46
2021/04/30 03:44:12;;;;;;;49.20;33.22;;;7.40;99.90;;;;;;5030605;28;20110;-47
2021/04/30 03:46:38;;;;;;;45.10;32.30;;;7.40;99.90;;;;;;5027475;28;20037;-47
2021/04/30 03:49:05;;;;;;;49.15;32.80;;;7.40;99.90;;;;;;5029804;28;20032;-49
2021/04/30 03:51:31;;;;;;;44.13;30.60;;;7.40;99.90;;;;;;5030472;28;20030;-46
2021/04/30 03:53:56;;;;;;;48.88;32.97;;;7.40;99.90;;;;;;5030481;28;20080;-46
2021/04/30 03:56:22;;;;;;;50.05;33.67;;;7.40;99.90;;;;;;5030297;28;20456;-47
2021/04/30 03:58:47;;;;;;;45.38;32.58;;;7.40;99.90;;;;;;5028339;28;20029;-46
2021/04/30 04:01:13;;;;;;;50.25;33.15;;;7.50;99.90;;;;;;5030039;28;20025;-48
2021/04/30 04:03:38;;;;;;;51.88;32.80;;;7.50;99.90;;;;;;5030169;28;20025;-47
2021/04/30 04:06:04;;;;;;;49.20;33.92;;;7.50;99.90;;;;;;5030362;28;20018;-46
2021/04/30 04:08:31;;;;;;;53.97;36.53;;;7.50;99.90;;;;;;5029577;28;20116;-46
2021/04/30 04:10:56;;;;;;;54.03;37.17;;;7.40;99.90;;;;;;5030066;28;20022;-47
2021/04/30 04:13:26;;;;;;;55.25;36.05;;;7.40;99.90;;;;;;5030109;28;20082;-46
2021/04/30 04:15:52;;;;;;;51.22;34.90;;;7.40;99.90;;;;;;5028460;28;20459;-46
2021/04/30 04:18:19;;;;;;;55.33;36.42;;;7.40;99.90;;;;;;5026650;28;20112;-46
2021/04/30 04:20:45;;;;;;;55.17;37.38;;;7.40;99.90;;;;;;5029901;28;20036;-46
2021/04/30 04:23:12;;;;;;;54.30;36.65;;;7.40;99.90;;;;;;5029912;28;20033;-46
2021/04/30 04:25:38;;;;;;;54.88;35.42;;;7.40;99.90;;;;;;5027131;28;20025;-46
2021/04/30 04:28:04;;;;;;;55.03;36.80;;;7.50;99.90;;;;;;5029010;28;20029;-48
2021/04/30 04:30:30;;;;;;;61.78;38.40;;;7.40;99.90;;;;;;5028660;28;20025;-46
2021/04/30 04:32:55;;;;;;;57.35;36.33;;;7.40;99.90;;;;;;5029096;28;20028;-47
2021/04/30 04:35:21;;;;;;;52.90;35.70;;;7.40;99.90;;;;;;5028121;28;20037;-45
2021/04/30 04:37:47;;;;;;;56.05;37.58;;;7.40;99.90;;;;;;5028005;28;20052;-45
2021/04/30 04:40:15;;;;;;;54.05;36.47;;;7.40;99.90;;;;;;5026959;28;20056;-45
2021/04/30 04:42:41;;;;;;;53.85;35.33;;;7.40;99.90;;;;;;5029195;28;20044;-48
2021/04/30 04:45:07;;;;;;;55.50;36.38;;;7.50;99.90;;;;;;5029268;28;20061;-46
2021/04/30 04:47:33;;;;;;;59.78;37.78;;;7.50;99.90;;;;;;5028531;28;20479;-46
2021/04/30 04:49:59;;;;;;;56.75;38.80;;;7.50;99.90;;;;;;5031797;28;20091;-43
2021/04/30 04:52:24;;;;;;;56.22;37.47;;;7.50;99.90;;;;;;5034074;28;20022;-42
2021/04/30 04:54:50;;;;;;;56.08;37.95;;;7.60;99.90;;;;;;5032512;28;20018;-43
2021/04/30 04:57:16;;;;;;;56.10;37.67;;;7.50;99.90;;;;;;5033972;28;20034;-42
2021/04/30 04:59:42;;;;;;;51.70;34.70;;;7.60;99.90;;;;;;5023311;28;20032;-44
2021/04/30 05:02:07;;;;;;;54.55;36.15;;;7.60;99.90;;;;;;5033428;28;20033;-44
2021/04/30 05:04:33;;;;;;;53.95;37.38;;;7.60;99.90;;;;;;5033254;28;20622;-44
2021/04/30 05:06:58;;;;;;;55.05;37.25;;;7.60;99.90;;;;;;5032878;28;20602;-44
2021/04/30 05:09:24;;;;;;;57.47;38.30;;;7.60;99.90;;;;;;5031483;28;20155;-45
2021/04/30 05:11:50;;;;;;;57.00;37.58;;;7.60;99.90;;;;;;5031991;28;20032;-45
2021/04/30 05:14:16;;;;;;;55.33;38.15;;;7.60;99.90;;;;;;5030827;28;20029;-45
2021/04/30 05:16:42;;;;;;;52.13;35.08;;;7.60;99.90;;;;;;5029140;28;20092;-44
2021/04/30 05:19:08;;;;;;;57.42;37.88;;;7.60;99.90;;;;;;5030913;28;20010;-45
2021/04/30 05:21:35;;;;;;;55.15;37.05;;;7.60;99.90;;;;;;5030088;28;20029;-45
2021/04/30 05:24:01;;;;;;;54.88;36.45;;;7.60;99.90;;;;;;5030420;28;20087;-45
2021/04/30 05:26:29;;;;;;;61.85;38.60;;;7.60;99.90;;;;;;5032482;28;20057;-45
2021/04/30 05:28:59;;;;;;;60.20;37.58;;;7.60;99.90;;;;;;5031775;28;20459;-46
2021/04/30 05:31:25;;;;;;;57.33;37.97;;;7.60;99.90;;;;;;5031010;28;20080;-45
2021/04/30 05:33:50;;;;;;;58.05;37.85;;;7.60;99.90;;;;;;5032356;28;20025;-45
2021/04/30 05:36:17;;;;;;;57.60;38.28;;;7.60;99.90;;;;;;5033666;28;20569;-46
2021/04/30 05:38:42;;;;;;;61.30;39.53;;;7.60;99.90;;;;;;5032641;28;20022;-45
2021/04/30 05:41:08;;;;;;;55.95;37.03;;;7.60;99.90;;;;;;5033746;28;20056;-46
2021/04/30 05:43:33;;;;;;;60.70;37.53;;;7.60;99.90;;;;;;5038968;28;20045;-46
2021/04/30 05:45:59;;;;;;;56.33;37.05;;;7.60;99.90;;;;;;5033418;28;20055;-45
2021/04/30 05:48:24;;;;;;;56.28;37.97;;;7.70;99.90;;;;;;5033826;28;20037;-44
2021/04/30 05:50:50;;;;;;;58.45;38.88;;;7.70;99.90;;;;;;5032495;28;20091;-44
2021/04/30 05:53:15;;;;;;;60.92;37.85;;;7.70;99.90;;;;;;5032646;28;20083;-45
2021/04/30 05:55:41;;;;;;;58.50;37.60;;;7.70;99.90;;;;;;5032472;28;20022;-45
2021/04/30 05:58:06;;;;;;;52.63;35.47;;;7.70;99.90;;;;;;5026179;28;20596;-45
2021/04/30 06:00:32;;;;;;;56.22;36.47;;;7.80;99.90;;;;;;5030579;28;20064;-43
2021/04/30 06:02:57;;;;;;;54.15;36.28;;;7.80;99.90;;;;;;5032604;28;20590;-45
2021/04/30 06:05:23;;;;;;;50.42;33.83;;;7.80;99.90;;;;;;5032542;28;20573;-43
2021/04/30 06:07:48;;;;;;;57.90;36.42;;;7.80;99.90;;;;;;5032030;28;20033;-45
2021/04/30 06:10:14;;;;;;;58.38;35.60;;;7.80;99.90;;;;;;5032127;28;20021;-46
2021/04/30 06:12:41;;;;;;;50.92;33.67;;;7.80;99.90;;;;;;5037892;28;20033;-46
2021/04/30 06:15:07;;;;;;;51.17;33.92;;;7.80;99.90;;;;;;5034776;28;20128;-45
2021/04/30 06:17:33;;;;;;;51.13;31.83;;;7.90;99.90;;;;;;5032174;28;20104;-45
2021/04/30 06:19:58;;;;;;;49.17;33.58;;;7.80;99.90;;;;;;5032908;28;20078;-45
2021/04/30 06:22:24;;;;;;;52.05;33.72;;;7.90;99.90;;;;;;5029526;28;20025;-45
2021/04/30 06:24:50;;;;;;;46.58;32.50;;;7.90;99.90;;;;;;5033615;28;20022;-45
2021/04/30 06:27:16;;;;;;;49.38;32.80;;;7.90;99.90;;;;;;5031707;28;20025;-45
2021/04/30 06:29:42;;;;;;;50.70;32.78;;;8.00;99.90;;;;;;5030997;28;20030;-45
2021/04/30 06:32:07;;;;;;;48.00;33.45;;;8.00;99.90;;;;;;5031871;28;20030;-45
2021/04/30 06:34:33;;;;;;;46.25;32.28;;;8.00;99.90;;;;;;5032338;28;20552;-46
2021/04/30 06:36:59;;;;;;;50.78;33.13;;;8.10;99.90;;;;;;5030338;28;20021;-47
2021/04/30 06:39:24;;;;;;;49.70;33.63;;;8.10;99.90;;;;;;5031809;28;20545;-45
2021/04/30 06:41:51;;;;;;;48.95;33.65;;;8.20;99.90;;;;;;5031872;28;20103;-46
2021/04/30 06:44:17;;;;;;;44.88;29.85;;;8.20;99.90;;;;;;5031888;28;20124;-45
2021/04/30 06:46:42;;;;;;;44.97;31.88;;;8.30;99.90;;;;;;5030905;28;20117;-44
2021/04/30 06:49:08;;;;;;;45.28;30.48;;;8.30;99.90;;;;;;5030580;28;20108;-44
2021/04/30 06:51:33;;;;;;;44.78;29.75;;;8.30;99.90;;;;;;5031618;28;20033;-46
2021/04/30 06:54:01;;;;;;;47.75;30.77;;;8.40;99.90;;;;;;5031839;28;20127;-43
2021/04/30 06:56:28;;;;;;;43.00;29.42;;;8.40;99.90;;;;;;5031685;28;20025;-43
2021/04/30 06:58:53;;;;;;;45.67;31.55;;;8.40;99.90;;;;;;5031222;28;20022;-43
2021/04/30 07:01:19;;;;;;;40.03;27.83;;;8.50;99.90;;;;;;5031689;28;20048;-43
2021/04/30 07:03:47;;;;;;;44.42;28.98;;;8.50;99.90;;;;;;5031090;28;20652;-51
2021/04/30 07:06:14;;;;;;;43.20;30.15;;;8.50;99.90;;;;;;5028955;28;20117;-44
2021/04/30 07:08:39;;;;;;;39.85;28.60;;;8.60;99.90;;;;;;5030927;28;20040;-45
2021/04/30 07:11:06;;;;;;;42.10;28.95;;;8.60;99.90;;;;;;5030591;28;20096;-45
2021/04/30 07:13:35;;;;;;;40.15;28.10;;;8.60;99.90;;;;;;5028530;28;20021;-44
2021/04/30 07:16:03;;;;;;;40.33;28.35;;;8.60;99.90;;;;;;5028767;28;20109;-45
2021/04/30 07:18:28;;;;;;;37.03;26.20;;;8.50;99.90;;;;;;5027124;28;20025;-45
2021/04/30 07:20:54;;;;;;;35.55;24.38;;;8.60;99.90;;;;;;5028943;28;20025;-44
2021/04/30 07:23:19;;;;;;;35.80;25.20;;;8.60;99.90;;;;;;5029456;28;20030;-46
2021/04/30 07:25:45;;;;;;;35.67;24.23;;;8.70;99.90;;;;;;5009420;28;20037;-45
2021/04/30 07:28:11;;;;;;;32.88;22.90;;;8.70;99.90;;;;;;5015583;28;20026;-45
2021/04/30 07:30:36;;;;;;;31.90;23.42;;;8.70;99.90;;;;;;5029038;28;20517;-44
2021/04/30 07:33:02;;;;;;;31.08;22.42;;;8.80;99.90;;;;;;5029583;28;20513;-45
2021/04/30 07:35:27;;;;;;;32.80;21.88;;;8.90;99.90;;;;;;5029144;28;20025;-44
2021/04/30 07:37:53;;;;;;;32.05;20.23;;;9.00;99.90;;;;;;5028515;28;20491;-45
2021/04/30 07:40:18;;;;;;;28.27;21.65;;;9.10;99.90;;;;;;5028705;28;20117;-45
2021/04/30 07:42:44;;;;;;;30.63;21.77;;;9.20;99.90;;;;;;5028425;28;20037;-44
2021/04/30 07:45:10;;;;;;;26.10;18.55;;;9.30;99.90;;;;;;5027329;28;20033;-47
2021/04/30 07:47:36;;;;;;;24.73;17.48;;;9.40;99.90;;;;;;5028424;28;20022;-44
2021/04/30 07:50:02;;;;;;;24.30;16.88;;;9.50;99.90;;;;;;5028889;28;20038;-43
2021/04/30 07:52:28;;;;;;;22.40;16.88;;;9.60;99.90;;;;;;5029319;28;20018;-45
2021/04/30 07:54:53;;;;;;;22.33;16.50;;;9.70;99.90;;;;;;5029063;28;20514;-45
2021/04/30 07:57:19;;;;;;;21.35;15.13;;;9.80;99.90;;;;;;5028999;28;20093;-45
2021/04/30 07:59:44;;;;;;;21.73;14.80;;;9.90;99.90;;;;;;5028610;28;20107;-46
2021/04/30 08:02:10;;;;;;;20.52;14.50;;;9.90;99.90;;;;;;5028747;28;20042;-45
2021/04/30 08:04:36;;;;;;;19.85;14.05;;;10.00;99.90;;;;;;5028886;28;20053;-44
2021/04/30 08:07:02;;;;;;;20.35;14.93;;;10.10;99.90;;;;;;5028495;28;20040;-46
2021/04/30 08:09:28;;;;;;;18.63;13.57;;;10.20;99.90;;;;;;5028202;28;20491;-47
2021/04/30 08:11:53;;;;;;;24.02;15.90;;;10.10;99.90;;;;;;5028695;28;20040;-45
2021/04/30 08:14:19;;;;;;;21.90;13.45;;;10.20;99.90;;;;;;5028508;28;20022;-45
2021/04/30 08:16:45;;;;;;;20.00;14.55;;;10.20;99.90;;;;;;5028152;28;20168;-45
2021/04/30 08:19:10;;;;;;;21.42;14.90;;;10.10;99.90;;;;;;5025996;28;20079;-45
2021/04/30 08:21:37;;;;;;;21.30;14.88;;;10.20;99.90;;;;;;5025941;28;20683;-44
2021/04/30 08:24:03;;;;;;;22.45;14.40;;;10.30;99.90;;;;;;5027279;28;20116;-45
2021/04/30 08:26:29;;;;;;;17.33;13.20;;;10.50;99.90;;;;;;5024532;28;20040;-43
2021/04/30 08:28:54;;;;;;;18.55;13.82;;;10.60;99.90;;;;;;5026006;28;20032;-45
2021/04/30 08:31:23;;;;;;;15.30;12.07;;;10.70;99.90;;;;;;5026190;28;20617;-45
2021/04/30 08:33:50;;;;;;;18.33;13.20;;;10.70;99.90;;;;;;5027193;28;20013;-47
2021/04/30 08:36:16;;;;;;;17.80;12.60;;;10.70;99.90;;;;;;5027389;28;20056;-44
2021/04/30 08:38:42;;;;;;;17.58;12.68;;;10.80;99.90;;;;;;5027110;28;20502;-44
2021/04/30 08:41:08;;;;;;;17.73;12.38;;;10.80;99.90;;;;;;5027809;28;20124;-44
2021/04/30 08:43:36;;;;;;;17.60;11.95;;;10.90;99.90;;;;;;5026328;28;20025;-45
2021/04/30 08:46:02;;;;;;;14.85;11.57;;;11.00;99.90;;;;;;5027040;28;20558;-44
2021/04/30 08:48:31;;;;;;;14.43;9.80;;;11.10;99.90;;;;;;5027047;28;20395;-45
2021/04/30 08:50:56;;;;;;;13.40;9.30;;;11.30;99.90;;;;;;5027017;28;20034;-46
2021/04/30 08:53:22;;;;;;;11.40;8.55;;;11.40;99.90;;;;;;5027817;28;20033;-45
2021/04/30 08:55:50;;;;;;;10.75;8.20;;;11.50;99.90;;;;;;5028022;28;20415;-44
2021/04/30 08:58:22;;;;;;;9.80;8.02;;;11.80;99.90;;;;;;5018832;28;20153;-45
2021/04/30 09:00:48;;;;;;;8.25;6.60;;;11.70;99.90;;;;;;5008721;28;20395;-45
2021/04/30 09:03:15;;;;;;;9.50;7.40;;;11.70;99.90;;;;;;5009019;28;20029;-45
2021/04/30 09:05:55;;;;;;;10.93;8.35;;;11.70;99.90;;;;;;5008369;28;20061;-45
2021/04/30 09:08:21;;;;;;;9.40;8.02;;;11.70;99.90;;;;;;5015350;28;20082;-45
2021/04/30 09:10:50;;;;;;;9.00;7.57;;;11.50;99.90;;;;;;5028019;28;20069;-45
2021/04/30 09:13:21;;;;;;;11.30;7.95;;;11.40;99.90;;;;;;5027596;28;20482;-45
2021/04/30 09:15:47;;;;;;;;;;;11.20;99.90;;;;;;5026145;28;20394;-46
2021/04/30 09:18:25;;;;;;;10.45;7.28;;;11.10;99.90;;;;;;5026434;28;19909;-45
2021/04/30 09:20:52;;;;;;;10.10;7.15;;;11.10;99.90;;;;;;5026228;28;20022;-44
2021/04/30 09:23:40;;;;;;;10.90;7.40;;;11.10;99.90;;;;;;5027642;28;20040;-44
2021/04/30 09:26:29;;;;;;;10.80;8.52;;;11.10;99.90;;;;;;5025894;28;20022;-44
2021/04/30 09:28:59;;;;;;;11.15;8.32;;;11.10;99.90;;;;;;5024698;28;20022;-44
2021/04/30 09:31:39;;;;;;;11.10;7.82;;;11.10;99.90;;;;;;5024807;28;20037;-44
2021/04/30 09:34:40;;;;;;;10.90;8.15;;;11.10;99.90;;;;;;5025477;28;20029;-45
2021/04/30 09:37:20;;;;;;;8.45;7.20;;;11.20;99.90;;;;;;5018458;28;20441;-45
2021/04/30 09:39:53;;;;;;;12.07;8.60;;;11.20;99.90;;;;;;5029416;28;20029;-44
2021/04/30 09:42:20;;;;;;;12.20;8.27;;;11.20;99.90;;;;;;5030623;28;20076;-44
2021/04/30 09:44:47;;;;;;;11.52;8.80;;;11.20;99.90;;;;;;5029202;28;20083;-45
2021/04/30 09:47:21;;;;;;;10.35;7.93;;;11.20;99.90;;;;;;5017303;28;20031;-44
2021/04/30 09:49:58;;;;;;;7.55;6.75;;;11.20;99.90;;;;;;5016429;28;20021;-45
2021/04/30 09:52:25;;;;;;;10.82;6.85;;;11.40;99.90;;;;;;5031088;28;20607;-44
2021/04/30 09:54:52;;;;;;;8.45;6.75;;;11.40;99.90;;;;;;5029135;28;20037;-43
2021/04/30 09:57:26;;;;;;;8.27;6.28;;;11.50;99.90;;;;;;5028988;28;20033;-47
2021/04/30 09:59:59;;;;;;;8.15;6.10;;;11.50;99.90;;;;;;5029843;28;20104;-47
2021/04/30 10:02:27;;;;;;;7.25;6.55;;;11.70;99.90;;;;;;5031440;28;20103;-43
2021/04/30 10:04:55;;;;;;;10.68;7.03;;;11.90;99.90;;;;;;5034813;28;20102;-45
2021/04/30 10:07:32;;;;;;;7.18;6.35;;;12.10;99.90;;;;;;5032946;28;20021;-45
2021/04/30 10:10:04;;;;;;;10.90;7.05;;;12.30;99.90;;;;;;5030591;28;20495;-45
2021/04/30 10:12:30;;;;;;;8.80;6.95;;;12.30;99.90;;;;;;5028832;28;20068;-44
2021/04/30 10:14:56;;;;;;;10.15;6.80;;;12.40;99.90;;;;;;5031386;28;20024;-45
2021/04/30 10:17:22;;;;;;;6.82;5.65;;;12.50;99.90;;;;;;5029414;28;20025;-45
2021/04/30 10:19:49;;;;;;;7.18;5.50;;;12.60;99.90;;;;;;5030082;28;20503;-44
2021/04/30 10:22:21;;;;;;;8.07;6.60;;;12.70;99.90;;;;;;5029876;28;20096;-44
2021/04/30 10:24:59;;;;;;;9.52;5.75;;;12.70;99.90;;;;;;5028452;28;20510;-44
2021/04/30 10:27:33;;;;;;;8.93;6.22;;;12.90;99.90;;;;;;5026446;28;20570;-46
2021/04/30 10:30:11;;;;;;;8.20;6.18;;;13.10;99.90;;;;;;5029941;28;20033;-45
2021/04/30 10:32:45;;;;;;;10.10;7.55;;;13.20;99.90;;;;;;5027343;28;20030;-45
2021/04/30 10:35:13;;;;;;;8.00;7.03;;;13.10;99.90;;;;;;5029124;28;20488;-44
2021/04/30 10:37:42;;;;;;;7.70;5.72;;;13.20;99.90;;;;;;5030102;28;20034;-45
2021/04/30 10:40:08;;;;;;;7.80;6.20;;;13.30;99.90;;;;;;5025592;28;20514;-45
2021/04/30 10:42:45;;;;;;;7.65;6.60;;;13.30;99.90;;;;;;5028751;28;20021;-45
2021/04/30 10:45:14;;;;;;;7.47;6.43;;;13.20;99.90;;;;;;5029540;28;20475;-47
2021/04/30 10:47:41;;;;;;;8.68;6.85;;;13.10;99.90;;;;;;5029246;28;20037;-46
2021/04/30 10:50:19;;;;;;;10.38;6.60;;;13.00;99.90;;;;;;5026383;28;20113;-45
2021/04/30 10:52:46;;;;;;;8.43;7.28;;;12.90;99.90;;;;;;5042642;28;20040;-44
2021/04/30 10:55:18;;;;;;;7.82;6.60;;;12.90;99.90;;;;;;5050089;28;20017;-46
2021/04/30 10:57:47;;;;;;;10.38;6.93;;;12.70;99.90;;;;;;5046622;28;20482;-45
2021/04/30 11:00:14;;;;;;;9.15;7.15;;;12.50;99.90;;;;;;5029560;28;20029;-45
2021/04/30 11:02:39;;;;;;;9.75;7.68;;;12.40;99.90;;;;;;5028370;28;20029;-44
2021/04/30 11:05:05;;;;;;;8.38;7.45;;;12.20;99.90;;;;;;5029796;28;20283;-45
2021/04/30 11:07:33;;;;;;;10.82;8.68;;;12.00;99.90;;;;;;5027979;28;20379;-45
2021/04/30 11:09:59;;;;;;;15.90;9.05;;;11.80;99.90;;;;;;5029289;28;20025;-45
2021/04/30 11:12:27;;;;;;;10.85;8.95;;;11.60;99.90;;;;;;5029475;28;20031;-45
2021/04/30 11:15:08;;;;;;;11.95;9.10;;;11.50;99.90;;;;;;5029474;28;20083;-46
2021/04/30 11:17:55;;;;;;;;;;;11.40;99.90;;;;;;5028761;28;20021;-46
2021/04/30 11:20:23;;;;;;;9.65;8.65;;;11.30;99.90;;;;;;5029408;28;19992;-45
2021/04/30 11:23:10;;;;;;;9.85;8.27;;;11.20;99.90;;;;;;5029132;28;20025;-45
2021/04/30 11:25:54;;;;;;;12.05;9.70;;;11.10;99.90;;;;;;5029606;28;20030;-43
2021/04/30 11:28:20;;;;;;;10.85;8.85;;;11.10;99.90;;;;;;5027743;28;20537;-44
2021/04/30 11:30:59;;;;;;;9.82;8.77;;;11.10;99.90;;;;;;5028197;28;20033;-45
2021/04/30 11:33:25;;;;;;;10.55;8.43;;;11.00;99.90;;;;;;5029201;28;20026;-44
2021/04/30 11:35:52;;;;;;;14.70;9.57;;;10.90;99.90;;;;;;5027345;28;20029;-45
2021/04/30 11:38:18;;;;;;;10.13;8.45;;;10.90;99.90;;;;;;5027617;28;20017;-45
2021/04/30 11:40:43;;;;;;;11.90;9.73;;;10.80;99.90;;;;;;5029404;28;20171;-46
2021/04/30 11:43:08;;;;;;;12.07;9.63;;;10.80;99.90;;;;;;5029454;28;20042;-47
2021/04/30 11:45:36;;;;;;;10.55;9.30;;;10.80;99.90;;;;;;5029283;28;20033;-46
2021/04/30 11:48:02;;;;;;;12.10;8.82;;;10.80;99.90;;;;;;5028450;28;20507;-47
2021/04/30 11:50:28;;;;;;;10.95;8.68;;;10.80;99.90;;;;;;5027779;28;20045;-44
2021/04/30 11:52:54;;;;;;;10.40;8.65;;;10.80;99.90;;;;;;5029201;28;20479;-46
2021/04/30 11:55:22;;;;;;;9.95;8.63;;;10.70;99.90;;;;;;5029085;28;20031;-45
2021/04/30 11:57:53;;;;;;;9.88;7.53;;;10.70;99.90;;;;;;5028276;28;20140;-49
2021/04/30 12:00:30;;;;;;;9.07;7.45;;;10.70;99.90;;;;;;5027507;28;20122;-45
2021/04/30 12:02:58;;;;;;;9.30;7.50;;;10.70;99.90;;;;;;5028777;28;20040;-45
2021/04/30 12:05:24;;;;;;;9.82;5.93;;;10.70;99.90;;;;;;5029045;28;20494;-47
2021/04/30 12:07:50;;;;;;;7.68;6.55;;;10.70;99.90;;;;;;5028417;28;20112;-46
2021/04/30 12:10:32;;;;;;;6.65;5.95;;;10.70;99.90;;;;;;5028905;28;20091;-44
2021/04/30 12:12:57;;;;;;;7.03;5.68;;;10.80;99.90;;;;;;5029277;28;20043;-43
2021/04/30 12:15:38;;;;;;;7.65;5.75;;;10.80;99.90;;;;;;5029046;28;20108;-45
2021/04/30 12:18:04;;;;;;;6.28;5.63;;;10.80;99.90;;;;;;5028625;28;20419;-45
2021/04/30 12:20:32;;;;;;;5.45;4.88;;;10.70;99.90;;;;;;5029292;28;20517;-45
2021/04/30 12:23:04;;;;;;;6.75;5.22;;;10.80;99.90;;;;;;5029110;28;20036;-45
2021/04/30 12:25:31;;;;;;;6.10;5.13;;;10.80;99.90;;;;;;5028821;28;20032;-44
2021/04/30 12:28:34;;;;;;;8.32;5.90;;;10.80;99.90;;;;;;5028247;28;20029;-45
2021/04/30 12:31:11;;;;;;;5.68;5.05;;;10.90;99.90;;;;;;5028776;28;20545;-43
2021/04/30 12:33:39;;;;;;;7.55;5.32;;;10.90;99.90;;;;;;5028432;28;20262;-44
2021/04/30 12:36:16;;;;;;;5.00;4.50;;;10.90;99.90;;;;;;5028535;28;20025;-45
2021/04/30 12:38:47;;;;;;;7.70;3.90;;;10.90;99.90;;;;;;5028053;28;20014;-45
2021/04/30 12:41:16;;;;;;;;;;;10.90;99.90;;;;;;5029377;28;20169;-45